createdAt,value
2022-12-18T00:00:32.618Z,24.55
2022-12-18T00:03:36.433Z,24.42
2022-12-18T00:06:39.112Z,22.90
2022-12-18T00:09:41.947Z,27.20
2022-12-18T00:12:44.418Z,26.10
2022-12-18T00:15:47.294Z,20.85
2022-12-18T00:18:51.828Z,24.87
2022-12-18T00:21:54.847Z,22.93
2022-12-18T00:24:58.036Z,24.17
2022-12-18T00:28:00.786Z,24.17
2022-12-18T00:31:12.076Z,26.37
2022-12-18T00:34:15.030Z,24.42
2022-12-18T00:37:20.178Z,20.83
2022-12-18T00:40:26.822Z,22.98
2022-12-18T00:43:30.131Z,22.15
2022-12-18T00:46:37.163Z,24.27
2022-12-18T00:49:40.057Z,22.62
2022-12-18T00:52:43.635Z,27.40
2022-12-18T00:55:47.166Z,30.45
2022-12-18T00:58:50.354Z,30.80
2022-12-18T01:01:53.171Z,27.83
2022-12-18T01:04:56.588Z,29.85
2022-12-18T01:07:59.507Z,30.27
2022-12-18T01:11:18.481Z,31.40
2022-12-18T01:14:21.012Z,30.20
2022-12-18T01:17:23.861Z,24.08
2022-12-18T01:20:26.553Z,28.38
2022-12-18T01:23:29.437Z,22.50
2022-12-18T01:26:32.095Z,22.90
2022-12-18T01:29:35.009Z,29.52
2022-12-18T01:32:38.710Z,31.17
2022-12-18T01:35:43.116Z,28.35
2022-12-18T01:38:46.422Z,30.93
2022-12-18T01:42:04.373Z,27.95
2022-12-18T01:45:10.100Z,32.78
2022-12-18T01:48:12.977Z,32.30
2022-12-18T01:51:15.714Z,38.25
2022-12-18T01:54:19.088Z,31.63
2022-12-18T01:57:21.994Z,29.70
2022-12-18T02:00:26.248Z,30.08
2022-12-18T02:03:29.146Z,30.80
2022-12-18T02:06:37.628Z,33.78
2022-12-18T02:09:57.826Z,29.23
2022-12-18T02:13:22.171Z,30.90
2022-12-18T02:16:32.169Z,34.17
2022-12-18T02:20:07.189Z,31.70
2022-12-18T02:23:53.825Z,32.85
2022-12-18T02:27:04.360Z,31.43
2022-12-18T02:30:08.199Z,32.05
2022-12-18T02:33:14.791Z,29.30
2022-12-18T02:36:19.575Z,32.08
2022-12-18T02:39:26.497Z,34.60
2022-12-18T02:42:30.693Z,33.87
2022-12-18T02:45:34.164Z,33.50
2022-12-18T02:48:37.043Z,28.40
2022-12-18T02:51:52.113Z,28.55
2022-12-18T02:55:03.621Z,32.67
2022-12-18T02:58:35.915Z,27.40
2022-12-18T03:01:58.812Z,29.92
2022-12-18T03:05:07.354Z,27.85
2022-12-18T03:08:15.785Z,31.80
2022-12-18T03:11:40.317Z,31.92
2022-12-18T03:14:44.992Z,27.40
2022-12-18T03:18:17.089Z,31.95
2022-12-18T03:21:23.412Z,25.92
2022-12-18T03:24:29.170Z,29.92
2022-12-18T03:27:34.091Z,29.25
2022-12-18T03:30:42.526Z,36.30
2022-12-18T03:33:52.454Z,33.40
2022-12-18T03:36:56.460Z,31.60
2022-12-18T03:39:59.434Z,33.13
2022-12-18T03:43:11.547Z,43.38
2022-12-18T03:46:59.509Z,34.77
2022-12-18T03:50:19.321Z,33.30
2022-12-18T03:53:25.461Z,34.38
2022-12-18T03:56:31.161Z,29.33
2022-12-18T03:59:36.514Z,33.10
2022-12-18T04:02:44.317Z,33.10
2022-12-18T04:05:50.099Z,24.65
2022-12-18T04:08:53.643Z,29.67
2022-12-18T04:11:57.335Z,32.65
2022-12-18T04:15:00.031Z,36.58
2022-12-18T04:18:03.540Z,32.07
2022-12-18T04:21:08.077Z,30.27
2022-12-18T04:24:11.109Z,38.25
2022-12-18T04:27:14.159Z,32.72
2022-12-18T04:30:17.779Z,30.27
2022-12-18T04:33:21.002Z,35.03
2022-12-18T04:36:24.169Z,35.17
2022-12-18T04:39:27.016Z,32.75
2022-12-18T04:42:30.129Z,29.55
2022-12-18T04:45:33.417Z,27.58
2022-12-18T04:48:36.998Z,29.13
2022-12-18T04:51:39.750Z,29.17
2022-12-18T04:54:42.534Z,32.70
2022-12-18T04:57:45.023Z,28.05
2022-12-18T05:00:47.849Z,28.25
2022-12-18T05:03:51.665Z,26.63
2022-12-18T05:06:54.434Z,30.33
2022-12-18T05:09:56.962Z,31.33
2022-12-18T05:13:01.182Z,29.00
2022-12-18T05:16:04.165Z,30.08
2022-12-18T05:19:06.981Z,30.97
2022-12-18T05:22:10.060Z,33.15
2022-12-18T05:25:12.846Z,29.42
2022-12-18T05:28:15.295Z,39.78
2022-12-18T05:31:18.146Z,33.00
2022-12-18T05:34:20.859Z,30.40
2022-12-18T05:37:23.902Z,34.13
2022-12-18T05:40:26.479Z,32.35
2022-12-18T05:43:30.767Z,34.20
2022-12-18T05:46:33.371Z,31.65
2022-12-18T05:49:36.290Z,32.70
2022-12-18T05:52:38.798Z,37.53
2022-12-18T05:55:42.407Z,32.13
2022-12-18T05:58:45.985Z,36.45
2022-12-18T06:01:49.128Z,33.85
2022-12-18T06:04:52.024Z,30.97
2022-12-18T06:07:54.730Z,31.83
2022-12-18T06:10:57.616Z,34.60
2022-12-18T06:14:00.713Z,28.58
2022-12-18T06:17:03.742Z,31.65
2022-12-18T06:20:07.942Z,26.63
2022-12-18T06:23:10.819Z,31.65
2022-12-18T06:26:14.490Z,27.85
2022-12-18T06:29:17.233Z,28.12
2022-12-18T06:32:19.782Z,31.62
2022-12-18T06:35:22.474Z,30.43
2022-12-18T06:38:25.427Z,37.70
2022-12-18T06:41:28.211Z,30.80
2022-12-18T06:44:30.714Z,28.52
2022-12-18T06:47:33.651Z,30.45
2022-12-18T06:50:36.457Z,24.57
2022-12-18T06:53:40.102Z,27.75
2022-12-18T06:56:43.045Z,30.00
2022-12-18T06:59:45.856Z,28.60
2022-12-18T07:02:48.495Z,35.33
2022-12-18T07:05:51.357Z,37.63
2022-12-18T07:08:55.088Z,37.53
2022-12-18T07:11:57.798Z,40.12
2022-12-18T07:15:00.593Z,52.60
2022-12-18T07:18:03.606Z,46.80
2022-12-18T07:21:07.726Z,47.77
2022-12-18T07:24:10.498Z,43.60
2022-12-18T07:27:12.937Z,48.50
2022-12-18T07:30:16.481Z,36.05
2022-12-18T07:33:19.209Z,46.45
2022-12-18T07:36:22.077Z,39.37
2022-12-18T07:39:24.724Z,41.35
2022-12-18T07:42:33.440Z,44.10
2022-12-18T07:45:36.086Z,56.97
2022-12-18T07:48:38.953Z,50.75
2022-12-18T07:51:41.527Z,56.00
2022-12-18T07:54:44.512Z,54.53
2022-12-18T07:57:51.432Z,55.28
2022-12-18T08:00:55.524Z,62.38
2022-12-18T08:03:58.565Z,64.32
2022-12-18T08:07:01.248Z,69.03
2022-12-18T08:10:04.523Z,63.72
2022-12-18T08:13:08.889Z,74.60
2022-12-18T08:16:13.761Z,59.03
2022-12-18T08:19:16.262Z,51.63
2022-12-18T08:22:19.069Z,71.50
2022-12-18T08:25:21.571Z,70.30
2022-12-18T08:28:24.674Z,83.75
2022-12-18T08:31:28.914Z,81.55
2022-12-18T08:34:31.790Z,55.97
2022-12-18T08:37:34.702Z,60.03
2022-12-18T08:40:37.605Z,68.45
2022-12-18T08:43:59.307Z,59.17
2022-12-18T08:47:02.171Z,48.80
2022-12-18T08:50:05.085Z,47.20
2022-12-18T08:53:08.331Z,75.80
2022-12-18T08:56:11.012Z,51.45
2022-12-18T08:59:19.335Z,62.80
2022-12-18T09:02:22.374Z,65.95
2022-12-18T09:05:25.368Z,43.20
2022-12-18T09:08:28.831Z,53.43
2022-12-18T09:11:33.022Z,42.97
2022-12-18T09:14:35.507Z,73.90
2022-12-18T09:17:38.306Z,49.70
2022-12-18T09:20:41.152Z,46.83
2022-12-18T09:23:44.634Z,41.70
2022-12-18T09:26:47.745Z,46.00
2022-12-18T09:29:50.795Z,42.65
2022-12-18T09:32:53.425Z,43.72
2022-12-18T09:35:56.339Z,42.85
2022-12-18T09:39:02.625Z,47.83
2022-12-18T09:42:20.619Z,48.90
2022-12-18T09:45:23.774Z,33.28
2022-12-18T09:48:29.636Z,37.55
2022-12-18T09:51:43.297Z,32.83
2022-12-18T09:54:51.596Z,29.67
2022-12-18T09:57:57.028Z,35.15
2022-12-18T10:01:00.025Z,32.85
2022-12-18T10:04:03.535Z,34.55
2022-12-18T10:07:29.319Z,30.77
2022-12-18T10:10:40.962Z,30.53
2022-12-18T10:13:48.041Z,28.65
2022-12-18T10:17:12.756Z,30.08
2022-12-18T10:20:22.280Z,33.53
2022-12-18T10:23:34.987Z,34.28
2022-12-18T10:26:37.662Z,32.10
2022-12-18T10:29:40.705Z,28.83
2022-12-18T10:32:43.879Z,31.52
2022-12-18T10:35:48.654Z,28.87
2022-12-18T10:38:51.189Z,36.67
2022-12-18T10:42:11.274Z,31.63
2022-12-18T10:45:18.695Z,27.92
2022-12-18T10:48:22.886Z,31.90
2022-12-18T10:51:34.432Z,38.67
2022-12-18T10:54:37.488Z,35.08
2022-12-18T10:57:42.504Z,45.47
2022-12-18T11:00:45.370Z,41.83
2022-12-18T11:03:50.850Z,30.42
2022-12-18T11:07:04.479Z,42.42
2022-12-18T11:10:16.238Z,39.83
2022-12-18T11:13:22.700Z,28.67
2022-12-18T11:16:25.377Z,29.83
2022-12-18T11:19:39.331Z,34.00
2022-12-18T11:22:41.942Z,30.55
2022-12-18T11:25:56.351Z,29.92
2022-12-18T11:29:11.121Z,27.83
2022-12-18T11:32:28.031Z,27.87
2022-12-18T11:35:52.458Z,29.67
2022-12-18T11:38:56.774Z,21.60
2022-12-18T11:42:11.361Z,25.33
2022-12-18T11:45:14.213Z,26.03
2022-12-18T11:48:26.299Z,28.80
2022-12-18T11:51:58.653Z,26.90
2022-12-18T11:55:02.891Z,19.75
2022-12-18T11:58:31.575Z,16.08
2022-12-18T12:01:56.008Z,17.47
2022-12-18T12:05:18.556Z,15.40
2022-12-18T12:08:24.208Z,17.65
2022-12-18T12:12:20.572Z,16.20
2022-12-18T12:15:45.003Z,13.57
2022-12-18T12:19:15.400Z,15.90
2022-12-18T12:22:30.304Z,10.07
2022-12-18T12:25:44.102Z,14.90
2022-12-18T12:29:01.439Z,12.50
2022-12-18T12:32:12.083Z,12.10
2022-12-18T12:35:33.333Z,11.93
2022-12-18T12:38:52.312Z,11.15
2022-12-18T12:42:14.090Z,14.32
2022-12-18T12:45:27.858Z,15.90
2022-12-18T12:48:45.551Z,16.33
2022-12-18T12:51:53.588Z,12.57
2022-12-18T12:54:57.796Z,15.52
2022-12-18T12:58:12.537Z,21.27
2022-12-18T13:01:53.185Z,14.25
2022-12-18T13:05:04.540Z,18.02
2022-12-18T13:08:11.079Z,15.83
2022-12-18T13:12:06.119Z,20.05
2022-12-18T13:15:35.847Z,20.77
2022-12-18T13:18:50.360Z,17.90
2022-12-18T13:21:57.019Z,20.12
2022-12-18T13:25:00.555Z,17.67
2022-12-18T13:28:09.335Z,17.85
2022-12-18T13:31:16.546Z,23.38
2022-12-18T13:34:27.684Z,26.08
2022-12-18T13:37:41.927Z,19.75
2022-12-18T13:40:48.006Z,23.93
2022-12-18T13:43:55.776Z,23.92
2022-12-18T13:46:58.587Z,25.83
2022-12-18T13:50:03.454Z,24.67
2022-12-18T13:53:06.552Z,25.27
2022-12-18T13:56:10.124Z,25.73
2022-12-18T13:59:17.095Z,22.33
2022-12-18T14:02:26.629Z,27.40
2022-12-18T14:05:35.361Z,30.02
2022-12-18T14:08:41.516Z,22.67
2022-12-18T14:11:50.761Z,25.37
2022-12-18T14:14:55.284Z,27.30
2022-12-18T14:18:22.943Z,26.67
2022-12-18T14:21:30.579Z,30.73
2022-12-18T14:24:33.870Z,23.02
2022-12-18T14:27:38.473Z,22.70
2022-12-18T14:30:46.489Z,26.30
2022-12-18T14:33:49.389Z,29.12
2022-12-18T14:36:57.119Z,28.83
2022-12-18T14:40:10.879Z,34.78
2022-12-18T14:43:14.549Z,29.87
2022-12-18T14:46:44.618Z,24.58
2022-12-18T14:49:47.789Z,34.67
2022-12-18T14:52:50.582Z,38.75
2022-12-18T14:55:53.408Z,47.70
2022-12-18T14:58:59.710Z,51.13
2022-12-18T15:02:12.070Z,60.65
2022-12-18T15:05:14.690Z,56.10
2022-12-18T15:08:47.615Z,52.42
2022-12-18T15:11:51.378Z,41.90
2022-12-18T15:14:54.230Z,34.03
2022-12-18T15:18:08.537Z,39.65
2022-12-18T15:21:12.838Z,35.22
2022-12-18T15:24:28.787Z,34.10
2022-12-18T15:27:36.880Z,40.17
2022-12-18T15:30:39.743Z,39.97
2022-12-18T15:34:02.688Z,39.25
2022-12-18T15:37:05.509Z,42.13
2022-12-18T15:40:13.638Z,35.80
2022-12-18T15:43:35.742Z,36.47
2022-12-18T15:46:38.911Z,43.17
2022-12-18T15:49:42.837Z,39.25
2022-12-18T15:52:48.918Z,40.08
2022-12-18T15:56:10.094Z,37.97
2022-12-18T15:59:16.073Z,38.35
2022-12-18T16:02:23.713Z,40.47
2022-12-18T16:05:28.019Z,40.50
2022-12-18T16:08:31.244Z,40.00
2022-12-18T16:11:39.036Z,40.63
2022-12-18T16:14:41.897Z,44.05
2022-12-18T16:17:45.823Z,41.57
2022-12-18T16:20:51.078Z,65.97
2022-12-18T16:23:54.208Z,103.07
2022-12-18T16:27:00.317Z,111.65
2022-12-18T16:30:04.060Z,102.00
2022-12-18T16:33:07.542Z,91.80
2022-12-18T16:36:11.335Z,84.65
2022-12-18T16:39:14.040Z,75.57
2022-12-18T16:42:21.149Z,57.05
2022-12-18T16:45:24.633Z,52.88
2022-12-18T16:48:27.793Z,48.87
2022-12-18T16:51:30.704Z,37.78
2022-12-18T16:54:35.180Z,38.50
2022-12-18T16:57:37.984Z,40.47
2022-12-18T17:00:41.222Z,35.58
2022-12-18T17:03:44.828Z,39.13
2022-12-18T17:06:52.028Z,39.22
2022-12-18T17:09:54.839Z,36.03
2022-12-18T17:12:57.979Z,37.72
2022-12-18T17:16:05.231Z,35.35
2022-12-18T17:19:12.223Z,33.57
2022-12-18T17:22:18.082Z,36.28
2022-12-18T17:25:21.095Z,31.80
2022-12-18T17:28:25.887Z,32.95
2022-12-18T17:31:30.642Z,38.90
2022-12-18T17:34:33.502Z,51.23
2022-12-18T17:37:36.317Z,49.67
2022-12-18T17:40:45.907Z,41.80
2022-12-18T17:43:53.577Z,34.08
2022-12-18T17:46:56.537Z,37.55
2022-12-18T17:49:59.423Z,39.00
2022-12-18T17:53:02.717Z,35.65
2022-12-18T17:56:06.407Z,35.80
2022-12-18T17:59:10.948Z,36.25
2022-12-18T18:02:14.176Z,33.53
2022-12-18T18:05:17.258Z,33.77
2022-12-18T18:08:20.662Z,31.83
2022-12-18T18:11:43.674Z,33.28
2022-12-18T18:14:46.475Z,29.87
2022-12-18T18:17:49.463Z,30.27
2022-12-18T18:20:52.435Z,28.13
2022-12-18T18:24:01.047Z,29.92
2022-12-18T18:27:03.555Z,29.30
2022-12-18T18:30:07.356Z,29.95
2022-12-18T18:33:11.998Z,30.05
2022-12-18T18:36:15.359Z,32.47
2022-12-18T18:39:18.483Z,27.65
2022-12-18T18:42:22.059Z,30.37
2022-12-18T18:45:28.045Z,26.85
2022-12-18T18:48:33.418Z,30.45
2022-12-18T18:51:39.698Z,26.27
2022-12-18T18:55:03.833Z,26.00
2022-12-18T18:58:05.354Z,28.55
2022-12-18T19:01:12.548Z,29.23
2022-12-18T19:04:15.432Z,34.47
2022-12-18T19:07:22.575Z,29.27
2022-12-18T19:10:33.558Z,29.55
2022-12-18T19:13:36.625Z,30.95
2022-12-18T19:16:39.833Z,31.33
2022-12-18T19:19:43.322Z,34.55
2022-12-18T19:22:55.354Z,30.50
2022-12-18T19:26:27.523Z,23.23
2022-12-18T19:29:32.119Z,31.52
2022-12-18T19:32:35.497Z,33.90
2022-12-18T19:35:39.455Z,27.02
2022-12-18T19:38:44.791Z,36.33
2022-12-18T19:41:48.486Z,33.03
2022-12-18T19:44:53.828Z,34.83
2022-12-18T19:47:59.735Z,34.58
2022-12-18T19:51:18.817Z,41.95
2022-12-18T19:54:22.270Z,45.40
2022-12-18T19:57:25.075Z,40.83
2022-12-18T20:00:28.078Z,47.78
2022-12-18T20:03:42.822Z,41.63
2022-12-18T20:06:51.334Z,39.63
2022-12-18T20:10:01.447Z,37.90
2022-12-18T20:13:08.275Z,42.80
2022-12-18T20:16:12.409Z,51.45
2022-12-18T20:19:15.872Z,45.60
2022-12-18T20:22:19.174Z,51.50
2022-12-18T20:25:21.909Z,41.17
2022-12-18T20:28:25.918Z,65.72
2022-12-18T20:31:29.086Z,48.13
2022-12-18T20:34:31.962Z,42.08
2022-12-18T20:37:34.940Z,53.22
2022-12-18T20:40:42.212Z,53.73
2022-12-18T20:43:45.578Z,55.72
2022-12-18T20:46:48.792Z,63.60
2022-12-18T20:49:51.456Z,53.58
2022-12-18T20:52:54.229Z,67.28
2022-12-18T20:55:56.732Z,72.13
2022-12-18T20:59:00.589Z,62.15
2022-12-18T21:02:03.373Z,58.83
2022-12-18T21:05:06.824Z,61.78
2022-12-18T21:08:09.992Z,65.50
2022-12-18T21:11:40.079Z,63.60
2022-12-18T21:14:44.200Z,69.12
2022-12-18T21:17:47.074Z,59.58
2022-12-18T21:20:49.932Z,59.08
2022-12-18T21:23:52.869Z,58.25
2022-12-18T21:26:55.550Z,63.03
2022-12-18T21:29:58.517Z,67.65
2022-12-18T21:33:01.014Z,64.80
2022-12-18T21:36:05.716Z,87.28
2022-12-18T21:39:09.429Z,65.60
2022-12-18T21:42:31.463Z,68.23
2022-12-18T21:45:34.238Z,104.63
2022-12-18T21:48:40.212Z,76.65
2022-12-18T21:51:42.806Z,77.12
2022-12-18T21:54:45.815Z,58.25
2022-12-18T21:57:49.110Z,79.43
2022-12-18T22:00:52.173Z,74.78
2022-12-18T22:03:55.044Z,77.97
2022-12-18T22:06:57.655Z,73.70
2022-12-18T22:10:04.602Z,69.22
2022-12-18T22:13:08.025Z,93.37
2022-12-18T22:16:10.943Z,84.43
2022-12-18T22:19:14.172Z,73.68
2022-12-18T22:22:17.791Z,69.15
2022-12-18T22:25:20.249Z,70.72
2022-12-18T22:28:41.784Z,65.80
2022-12-18T22:31:44.612Z,75.45
2022-12-18T22:34:47.762Z,66.35
2022-12-18T22:37:50.265Z,71.43
2022-12-18T22:40:53.024Z,74.90
2022-12-18T22:43:55.743Z,74.93
2022-12-18T22:47:06.943Z,63.20
2022-12-18T22:50:12.297Z,72.75
2022-12-18T22:53:15.210Z,72.93
2022-12-18T22:56:21.328Z,78.07
2022-12-18T22:59:25.005Z,74.73
2022-12-18T23:02:27.641Z,67.37
2022-12-18T23:05:31.349Z,67.20
2022-12-18T23:08:34.167Z,67.18
2022-12-18T23:11:37.009Z,71.22
2022-12-18T23:14:39.486Z,69.50
2022-12-18T23:17:42.253Z,82.28
2022-12-18T23:20:44.964Z,69.03
2022-12-18T23:23:48.973Z,77.00
2022-12-18T23:26:51.478Z,72.75
2022-12-18T23:29:54.423Z,70.83
2022-12-18T23:32:59.225Z,71.68
2022-12-18T23:36:02.489Z,70.57
2022-12-18T23:39:05.327Z,68.05
2022-12-18T23:42:08.267Z,72.10
2022-12-18T23:45:16.595Z,72.53
2022-12-18T23:48:21.228Z,73.87
2022-12-18T23:51:25.651Z,67.57
2022-12-18T23:54:33.486Z,73.93
2022-12-18T23:57:36.434Z,69.03
